Time;durP1;ratioP1;P1;durP2;ratioP2;P2;SDS_P1;SDS_P2;PMS_P1;PMS_P2;Temp;Humidity;BMP_temperature;BMP_pressure;BME280_temperature;BME280_humidity;BME280_pressure;Samples;Min_cycle;Max_cycle;Signal;HPM_P1;HPM_P2
2022/06/29 00:00:24;;;;;;;46.97;30.10;;;;;;;19.07;100.00;100249.88;4207198;28;21168;-66
2022/06/29 00:02:51;;;;;;;46.47;28.03;;;;;;;19.13;100.00;100240.97;4211965;28;20998;-66
2022/06/29 00:05:21;;;;;;;41.47;28.13;;;;;;;19.13;100.00;100237.47;4194424;28;20623;-67
2022/06/29 00:07:48;;;;;;;46.87;28.37;;;;;;;19.17;100.00;100238.69;4208698;28;20236;-65
2022/06/29 00:10:15;;;;;;;48.20;29.23;;;;;;;19.12;100.00;100250.09;4206465;28;21177;-69
2022/06/29 00:12:43;;;;;;;48.17;30.13;;;;;;;19.07;100.00;100254.47;4213501;28;20608;-64
2022/06/29 00:15:11;;;;;;;50.27;31.93;;;;;;;19.12;100.00;100260.06;4210299;28;20242;-65
2022/06/29 00:17:37;;;;;;;52.67;32.43;;;;;;;19.09;100.00;100247.81;4197406;28;20657;-68
2022/06/29 00:20:05;;;;;;;48.43;32.47;;;;;;;19.06;100.00;100239.28;4206716;28;23949;-66
2022/06/29 00:22:33;;;;;;;59.60;36.43;;;;;;;19.00;100.00;100242.84;4206182;28;20240;-65
2022/06/29 00:24:59;;;;;;;54.77;34.57;;;;;;;19.09;100.00;100241.59;4179722;28;20245;-64
2022/06/29 00:27:26;;;;;;;59.23;36.03;;;;;;;19.04;100.00;100239.53;4212088;28;20409;-65
2022/06/29 00:29:53;;;;;;;63.27;37.50;;;;;;;18.99;100.00;100236.63;4223416;28;20236;-66
2022/06/29 00:32:19;;;;;;;61.60;37.57;;;;;;;19.02;100.00;100236.19;4214526;28;25625;-65
2022/06/29 00:34:46;;;;;;;55.57;34.53;;;;;;;19.18;100.00;100235.78;4203653;28;20571;-66
2022/06/29 00:37:13;;;;;;;64.77;38.47;;;;;;;19.11;100.00;100231.44;4212596;28;20229;-66
2022/06/29 00:39:40;;;;;;;59.00;36.13;;;;;;;19.06;100.00;100237.44;4206119;28;20332;-63
2022/06/29 00:42:07;;;;;;;63.67;38.50;;;;;;;19.03;100.00;100231.63;4207276;28;20462;-67
2022/06/29 00:44:33;;;;;;;65.03;39.07;;;;;;;19.04;100.00;100233.31;4210290;28;20639;-66
2022/06/29 00:47:03;;;;;;;70.10;40.43;;;;;;;19.03;100.00;100240.53;4209053;28;20419;-66
2022/06/29 00:49:31;;;;;;;64.93;39.43;;;;;;;19.03;100.00;100232.44;4214170;28;20248;-65
2022/06/29 00:52:14;;;;;;;65.27;37.87;;;;;;;19.07;100.00;100240.97;4209959;28;20363;-67
2022/06/29 00:54:50;;;;;;;68.13;38.87;;;;;;;19.05;100.00;100237.66;4205897;28;20275;-65
2022/06/29 00:57:19;;;;;;;68.00;40.00;;;;;;;19.07;100.00;100227.50;4208884;28;21607;-65
2022/06/29 00:59:50;;;;;;;72.67;42.10;;;;;;;19.01;100.00;100212.97;4185253;28;20233;-65
2022/06/29 01:02:19;;;;;;;77.87;42.03;;;;;;;18.97;100.00;100209.03;4199363;28;20260;-65
2022/06/29 01:04:47;;;;;;;67.63;39.40;;;;;;;19.03;100.00;100201.97;4177794;28;20957;-66
2022/06/29 01:07:22;;;;;;;67.07;39.93;;;;;;;19.07;100.00;100195.13;4190914;28;20268;-66
2022/06/29 01:09:48;;;;;;;64.40;40.23;;;;;;;19.06;100.00;100182.66;4188493;28;20485;-68
2022/06/29 01:12:16;;;;;;;71.20;39.90;;;;;;;19.03;100.00;100183.09;4193242;28;20282;-65
2022/06/29 01:14:47;;;;;;;72.93;41.27;;;;;;;19.03;100.00;100185.78;4185903;28;21306;-66
2022/06/29 01:17:13;;;;;;;70.30;40.47;;;;;;;19.04;100.00;100180.19;4193471;28;21894;-67
2022/06/29 01:19:41;;;;;;;75.67;41.13;;;;;;;18.98;100.00;100181.81;4200675;28;20237;-64
2022/06/29 01:22:15;;;;;;;82.17;41.90;;;;;;;18.94;100.00;100174.34;4180600;28;20229;-65
2022/06/29 01:24:46;;;;;;;74.00;41.00;;;;;;;19.02;100.00;100170.66;4185607;28;20237;-65
2022/06/29 01:27:14;;;;;;;64.20;39.93;;;;;;;19.08;100.00;100167.09;4185988;28;21032;-65
2022/06/29 01:29:42;;;;;;;66.97;39.47;;;;;;;19.06;100.00;100166.47;4194017;28;20252;-64
2022/06/29 01:32:08;;;;;;;72.70;41.00;;;;;;;19.02;100.00;100167.94;4183667;28;20229;-66
2022/06/29 01:34:36;;;;;;;63.77;38.83;;;;;;;19.06;100.00;100155.69;4181061;28;21298;-65
2022/06/29 01:37:03;;;;;;;62.53;38.67;;;;;;;19.12;100.00;100160.25;4188135;28;20250;-66
2022/06/29 01:39:30;;;;;;;54.60;35.33;;;;;;;19.10;100.00;100156.94;4193643;28;20887;-68
2022/06/29 01:41:57;;;;;;;53.90;35.63;;;;;;;19.13;100.00;100157.38;4192184;28;20298;-68
2022/06/29 01:44:23;;;;;;;61.47;37.53;;;;;;;19.15;100.00;100159.84;4196326;28;20237;-65
2022/06/29 01:46:50;;;;;;;63.83;36.27;;;;;;;19.07;100.00;100155.50;4194218;28;20367;-66
2022/06/29 01:49:17;;;;;;;54.20;34.53;;;;;;;19.04;100.00;100153.22;4181704;28;26180;-66
2022/06/29 01:51:43;;;;;;;56.80;35.27;;;;;;;18.95;100.00;100143.66;4193742;28;20245;-65
2022/06/29 01:54:10;;;;;;;53.70;32.73;;;;;;;18.95;100.00;100141.78;4191872;28;20333;-68
2022/06/29 01:56:36;;;;;;;49.37;33.20;;;;;;;19.03;100.00;100139.94;4187565;28;26359;-65
2022/06/29 01:59:03;;;;;;;58.67;33.03;;;;;;;19.01;100.00;100148.25;4190989;28;22277;-65
2022/06/29 02:01:29;;;;;;;54.30;31.87;;;;;;;18.97;100.00;100155.09;4165410;28;20241;-66
2022/06/29 02:03:56;;;;;;;50.67;32.60;;;;;;;18.94;100.00;100159.03;4200585;28;20325;-67
2022/06/29 02:06:23;;;;;;;48.77;30.87;;;;;;;18.94;100.00;100159.03;4188519;28;20694;-65
2022/06/29 02:08:49;;;;;;;42.57;28.03;;;;;;;18.89;100.00;100156.09;4191375;28;21764;-66
2022/06/29 02:11:16;;;;;;;43.57;26.70;;;;;;;18.91;100.00;100150.50;4180238;28;28652;-65
2022/06/29 02:13:42;;;;;;;39.60;25.60;;;;;;;18.88;100.00;100148.22;4194129;28;21108;-66
2022/06/29 02:16:09;;;;;;;40.57;25.40;;;;;;;18.75;100.00;100149.00;4198429;28;20309;-66
2022/06/29 02:18:36;;;;;;;33.77;23.60;;;;;;;18.65;100.00;100149.41;4192239;28;20224;-66
2022/06/29 02:21:02;;;;;;;33.07;24.07;;;;;;;18.63;100.00;100147.94;4195348;28;20241;-66
2022/06/29 02:23:29;;;;;;;32.87;21.33;;;;;;;18.59;100.00;100146.69;4193873;28;20257;-65
2022/06/29 02:25:55;;;;;;;31.17;22.63;;;;;;;18.50;100.00;100156.84;4194773;28;20332;-67
2022/06/29 02:28:22;;;;;;;30.03;21.00;;;;;;;18.50;100.00;100148.78;4186664;28;20262;-65
2022/06/29 02:36:19;;;;;;;28.27;20.03;;;;;;;18.59;100.00;100155.63;4196826;28;20240;-64
2022/06/29 02:38:46;;;;;;;35.57;20.43;;;;;;;18.50;100.00;100157.69;4196425;28;20299;-64
2022/06/29 02:41:12;;;;;;;32.60;20.07;;;;;;;18.52;100.00;100155.63;4200232;28;20240;-65
2022/06/29 02:43:39;;;;;;;28.53;19.43;;;;;;;18.47;100.00;100157.25;4211475;28;20687;-65
2022/06/29 02:46:06;;;;;;;27.47;19.27;;;;;;;18.43;100.00;100162.22;4198985;28;20450;-69
2022/06/29 02:48:33;;;;;;;28.17;18.87;;;;;;;18.46;100.00;100167.19;4199122;28;20426;-65
2022/06/29 02:50:59;;;;;;;29.17;18.87;;;;;;;18.50;100.00;100170.34;4203407;28;21208;-64
2022/06/29 02:53:26;;;;;;;37.27;19.13;;;;;;;18.52;100.00;100161.00;4208637;28;21145;-67
2022/06/29 02:55:54;;;;;;;28.77;18.63;;;;;;;18.61;100.00;100158.09;4192749;28;20280;-65
2022/06/29 02:58:20;;;;;;;26.67;19.20;;;;;;;18.52;100.00;100160.19;4212846;28;20319;-65
2022/06/29 03:00:47;;;;;;;30.47;18.13;;;;;;;18.64;100.00;100160.41;4211723;28;22004;-65
2022/06/29 03:03:14;;;;;;;30.50;19.70;;;;;;;18.65;100.00;100156.66;4204020;28;20525;-65
2022/06/29 03:05:41;;;;;;;35.17;21.67;;;;;;;18.62;100.00;100165.19;4207975;28;20229;-66
2022/06/29 03:08:07;;;;;;;31.30;20.20;;;;;;;18.63;100.00;100169.50;4199425;28;20295;-65
2022/06/29 03:10:34;;;;;;;30.20;20.47;;;;;;;18.66;100.00;100158.31;4190693;28;20317;-65
2022/06/29 03:13:00;;;;;;;27.80;19.30;;;;;;;18.65;100.00;100160.19;4213855;28;22412;-65
2022/06/29 03:15:27;;;;;;;29.27;19.93;;;;;;;18.70;100.00;100163.09;4202857;28;21666;-66
2022/06/29 03:17:54;;;;;;;32.40;20.80;;;;;;;18.75;100.00;100159.78;4208270;28;20605;-66
2022/06/29 03:20:21;;;;;;;32.37;21.67;;;;;;;18.72;100.00;100152.13;4198753;28;23281;-65
2022/06/29 03:22:48;;;;;;;31.90;22.47;;;;;;;18.76;100.00;100150.69;4209593;28;22056;-64
2022/06/29 03:25:15;;;;;;;29.53;20.00;;;;;;;18.75;100.00;100146.31;4194640;28;20358;-65
2022/06/29 03:27:43;;;;;;;28.50;19.63;;;;;;;18.79;100.00;100144.91;4207927;28;20547;-63
2022/06/29 03:30:10;;;;;;;34.70;21.47;;;;;;;18.66;100.00;100150.22;4216362;28;20283;-64
2022/06/29 03:32:36;;;;;;;33.60;21.40;;;;;;;18.71;100.00;100159.38;4206747;28;20238;-64
2022/06/29 03:35:04;;;;;;;34.40;22.77;;;;;;;18.65;100.00;100159.38;4211277;28;20244;-64
2022/06/29 03:37:31;;;;;;;38.10;23.17;;;;;;;18.59;100.00;100154.78;4212841;28;20247;-66
2022/06/29 03:39:58;;;;;;;35.23;23.57;;;;;;;18.69;100.00;100160.63;4226516;28;20886;-66
2022/06/29 03:42:24;;;;;;;43.50;25.40;;;;;;;18.54;100.00;100156.25;4212945;28;20240;-68
2022/06/29 03:44:51;;;;;;;38.60;23.63;;;;;;;18.59;100.00;100158.34;4217180;28;25515;-64
2022/06/29 03:47:17;;;;;;;33.40;22.83;;;;;;;18.67;100.00;100160.00;4210035;28;20294;-66
2022/06/29 03:49:44;;;;;;;39.13;24.47;;;;;;;18.67;100.00;100165.38;4203103;28;20244;-66
2022/06/29 03:52:11;;;;;;;36.20;24.60;;;;;;;18.62;100.00;100159.78;4208942;28;25458;-66
2022/06/29 03:54:37;;;;;;;38.50;24.27;;;;;;;18.49;100.00;100158.69;4227638;28;20246;-65
2022/06/29 03:57:05;;;;;;;40.03;24.53;;;;;;;18.54;100.00;100156.25;4213199;28;22976;-65
2022/06/29 03:59:32;;;;;;;41.37;24.80;;;;;;;18.62;100.00;100155.22;4211064;28;24556;-65
2022/06/29 04:01:59;;;;;;;39.67;26.00;;;;;;;18.63;100.00;100153.34;4217555;28;20986;-64
2022/06/29 04:04:26;;;;;;;39.93;25.17;;;;;;;18.65;100.00;100141.31;4221304;28;20247;-65
2022/06/29 04:06:52;;;;;;;40.83;25.30;;;;;;;18.67;100.00;100135.75;4218079;28;20240;-65
2022/06/29 04:09:19;;;;;;;39.53;25.17;;;;;;;18.72;100.00;100125.97;4219379;28;20254;-64
2022/06/29 04:11:49;;;;;;;44.20;25.17;;;;;;;18.73;100.00;100118.72;4226421;28;22431;-67
2022/06/29 04:14:16;;;;;;;39.80;25.13;;;;;;;18.81;100.00;100121.25;4216972;28;20235;-63
2022/06/29 04:16:43;;;;;;;42.90;26.07;;;;;;;18.84;100.00;100118.16;4210159;28;20237;-65
2022/06/29 04:19:09;;;;;;;39.80;24.77;;;;;;;18.92;100.00;100123.34;4219485;28;20447;-64
2022/06/29 04:21:37;;;;;;;39.43;25.33;;;;;;;18.99;100.00;100112.56;4223973;28;20244;-64
2022/06/29 04:24:03;;;;;;;36.37;24.17;;;;;;;18.95;100.00;100117.53;4208663;28;20291;-65
2022/06/29 04:26:30;;;;;;;36.93;22.53;;;;;;;19.12;100.00;100119.81;4202516;28;22907;-65
2022/06/29 04:28:57;;;;;;;32.40;21.07;;;;;;;19.20;100.00;100114.22;4212749;28;22094;-65
2022/06/29 04:31:23;;;;;;;39.50;23.40;;;;;;;19.28;100.00;100115.84;4217334;28;25745;-66
2022/06/29 04:33:50;;;;;;;34.57;20.97;;;;;;;19.42;100.00;100112.09;4216125;28;20244;-65
2022/06/29 04:36:17;;;;;;;32.90;22.13;;;;;;;19.27;100.00;100109.63;4202818;28;20476;-64
2022/06/29 04:38:43;;;;;;;32.43;20.00;;;;;;;19.26;100.00;100113.34;4210598;28;20272;-64
2022/06/29 04:41:10;;;;;;;33.70;20.80;;;;;;;19.23;100.00;100112.97;4195487;28;20237;-64
2022/06/29 04:43:36;;;;;;;30.57;19.33;;;;;;;19.25;100.00;100108.19;4212079;28;20557;-65
2022/06/29 04:46:21;;;;;;;27.20;19.73;;;;;;;19.15;100.00;100119.38;4215316;28;20236;-67
2022/06/29 04:48:55;;;;;;;28.20;20.10;;;;;;;19.12;100.00;100107.13;4207898;28;20235;-65
2022/06/29 04:51:23;;;;;;;29.00;17.83;;;;;;;19.22;100.00;100109.41;4211348;28;20240;-65
2022/06/29 04:53:54;;;;;;;25.87;18.63;;;;;;;19.31;100.00;100104.63;4209163;28;21245;-65
2022/06/29 04:56:22;;;;;;;32.53;19.40;;;;;;;19.44;100.00;100117.28;4213384;28;22840;-66
2022/06/29 04:58:49;;;;;;;26.90;18.83;;;;;;;19.51;100.00;100126.19;4195073;28;22840;-67
2022/06/29 05:01:15;;;;;;;30.33;18.53;;;;;;;19.63;100.00;100127.19;4201568;28;20233;-64
2022/06/29 05:03:42;;;;;;;29.90;17.80;;;;;;;19.67;100.00;100135.72;4186777;28;22037;-65
2022/06/29 05:06:09;;;;;;;25.50;17.90;;;;;;;19.66;100.00;100140.25;4186802;28;20317;-63
2022/06/29 05:08:35;;;;;;;26.13;17.10;;;;;;;19.62;100.00;100139.03;4198410;28;22266;-40
2022/06/29 05:11:02;;;;;;;22.27;15.90;;;;;;;19.67;100.00;100141.09;4197385;28;20245;-39
2022/06/29 05:13:29;;;;;;;25.47;15.90;;;;;;;19.67;100.00;100147.31;4185936;28;20556;-41
2022/06/29 05:15:55;;;;;;;27.20;18.00;;;;;;;19.73;100.00;100149.19;4182653;28;20233;-44
2022/06/29 05:18:22;;;;;;;25.47;16.20;;;;;;;19.79;100.00;100150.22;4197738;28;20236;-44
2022/06/29 05:20:55;;;;;;;25.47;16.50;;;;;;;19.84;100.00;100149.59;4176003;28;21189;-47
2022/06/29 05:23:21;;;;;;;22.90;16.17;;;;;;;19.95;100.00;100147.06;4193453;28;20304;-43
2022/06/29 05:25:48;;;;;;;23.70;17.07;;;;;;;19.88;100.00;100146.25;4193971;28;20310;-43
2022/06/29 05:28:15;;;;;;;23.60;17.20;;;;;;;19.97;100.00;100144.13;4170786;28;22143;-45
2022/06/29 05:30:42;;;;;;;28.23;16.83;;;;;;;19.90;100.00;100146.88;4184705;28;24076;-45
2022/06/29 05:33:09;;;;;;;23.30;16.20;;;;;;;19.95;100.00;100138.97;4192802;28;21107;-46
2022/06/29 05:35:35;;;;;;;23.87;15.47;;;;;;;19.95;100.00;100141.66;4187755;28;20237;-46
2022/06/29 05:38:02;;;;;;;23.00;15.43;;;;;;;19.98;100.00;100140.41;4186170;28;21990;-45
2022/06/29 05:40:30;;;;;;;22.57;15.30;;;;;;;19.93;100.00;100149.16;4194752;28;20251;-49
2022/06/29 05:42:57;;;;;;;20.37;15.17;;;;;;;20.05;100.00;100152.00;4204052;28;23391;-48
2022/06/29 05:45:27;;;;;;;21.90;16.33;;;;;;;20.04;100.00;100150.34;4196882;28;22373;-43
2022/06/29 05:47:54;;;;;;;22.70;17.03;;;;;;;19.94;100.00;100144.56;4188370;28;20294;-47
2022/06/29 05:50:22;;;;;;;24.30;16.40;;;;;;;19.99;100.00;100145.59;4202014;28;21817;-46
2022/06/29 05:52:49;;;;;;;19.80;15.33;;;;;;;20.17;100.00;100144.06;4215291;28;20256;-47
2022/06/29 05:55:16;;;;;;;21.20;15.67;;;;;;;20.33;100.00;100145.44;4188498;28;20650;-48
2022/06/29 05:57:42;;;;;;;21.17;15.20;;;;;;;20.50;100.00;100151.16;4203926;28;20240;-46
2022/06/29 06:00:13;;;;;;;19.40;13.30;;;;;;;20.63;100.00;100162.75;4213671;28;20308;-47
2022/06/29 06:02:40;;;;;;;17.63;14.00;;;;;;;20.73;100.00;100166.84;4211893;28;20463;-43
2022/06/29 06:05:07;;;;;;;21.53;14.03;;;;;;;20.74;100.00;100157.69;4173458;28;20241;-46
2022/06/29 06:07:34;;;;;;;26.27;14.73;;;;;;;20.70;100.00;100157.31;4196577;28;20313;-45
2022/06/29 06:10:01;;;;;;;19.83;15.27;;;;;;;20.70;100.00;100157.31;4207687;28;20303;-44
2022/06/29 06:12:28;;;;;;;26.80;16.67;;;;;;;20.54;100.00;100157.78;4200929;28;21715;-46
2022/06/29 06:14:59;;;;;;;20.17;15.60;;;;;;;20.62;100.00;100161.09;4196989;28;21240;-47
2022/06/29 06:17:29;;;;;;;24.43;16.47;;;;;;;20.69;100.00;100166.44;4201850;28;20715;-48
2022/06/29 06:20:01;;;;;;;25.27;17.63;;;;;;;20.78;100.00;100169.72;4205742;28;20335;-46
2022/06/29 06:22:28;;;;;;;20.27;15.03;;;;;;;20.88;100.00;100175.47;4203571;28;20864;-48
2022/06/29 06:24:55;;;;;;;24.27;15.10;;;;;;;21.10;100.00;100177.84;4192462;28;20252;-43
2022/06/29 06:27:21;;;;;;;20.70;14.40;;;;;;;21.21;100.00;100171.69;4201445;28;22913;-42
2022/06/29 06:29:48;;;;;;;19.53;16.07;;;;;;;21.30;98.85;100173.06;4198097;28;20237;-42
2022/06/29 06:32:15;;;;;;;25.33;14.60;;;;;;;21.34;98.51;100171.56;4214447;28;20332;-43
2022/06/29 06:34:41;;;;;;;20.73;14.33;;;;;;;21.52;97.82;100170.81;4203929;28;20240;-42
2022/06/29 06:37:08;;;;;;;21.37;13.33;;;;;;;21.63;96.07;100166.53;4182985;28;20244;-43
2022/06/29 06:39:34;;;;;;;16.37;12.73;;;;;;;21.62;95.93;100170.28;4205838;28;20765;-45
2022/06/29 06:42:02;;;;;;;17.13;13.30;;;;;;;21.61;97.42;100171.34;4209978;28;21142;-57
2022/06/29 06:44:29;;;;;;;20.70;15.00;;;;;;;21.42;98.36;100170.47;4177825;28;20239;-43
2022/06/29 06:46:59;;;;;;;26.77;16.57;;;;;;;21.25;98.06;100167.47;4176318;28;20234;-38
2022/06/29 06:49:27;;;;;;;19.03;14.07;;;;;;;21.36;97.62;100177.59;4190365;28;26291;-38
2022/06/29 06:51:53;;;;;;;22.93;16.17;;;;;;;21.44;97.19;100177.31;4190028;28;21316;-38
2022/06/29 06:54:20;;;;;;;17.23;12.70;;;;;;;21.59;96.39;100189.72;4201721;28;20315;-40
2022/06/29 06:56:46;;;;;;;22.43;13.23;;;;;;;21.45;97.60;100189.81;4212699;28;21385;-37
2022/06/29 06:59:13;;;;;;;16.23;12.23;;;;;;;21.30;97.68;100189.28;4196410;28;20246;-38
2022/06/29 07:01:40;;;;;;;18.60;15.13;;;;;;;21.07;99.62;100188.03;4209343;28;20236;-38
2022/06/29 07:04:14;;;;;;;18.30;14.47;;;;;;;21.05;100.00;100187.44;4205609;28;21143;-39
2022/06/29 07:06:40;;;;;;;23.20;14.10;;;;;;;21.05;99.90;100192.84;4198934;28;20613;-38
2022/06/29 07:09:07;;;;;;;16.83;13.77;;;;;;;21.13;99.24;100193.63;4198688;28;20339;-39
2022/06/29 07:11:33;;;;;;;20.67;14.03;;;;;;;21.02;99.50;100195.97;4211832;28;20228;-41
2022/06/29 07:14:00;;;;;;;23.27;15.43;;;;;;;20.92;100.00;100197.50;4209633;28;20264;-39
2022/06/29 07:16:27;;;;;;;21.77;15.70;;;;;;;20.98;100.00;100196.66;4180859;28;20263;-47
2022/06/29 07:18:54;;;;;;;21.70;15.33;;;;;;;20.94;99.33;100204.38;4210776;28;24000;-38
2022/06/29 07:21:21;;;;;;;19.50;14.47;;;;;;;20.89;100.00;100196.09;4208754;28;20242;-37
2022/06/29 07:23:48;;;;;;;23.93;16.97;;;;;;;20.59;100.00;100195.84;4203399;28;20428;-38
2022/06/29 07:26:14;;;;;;;23.97;16.90;;;;;;;20.50;100.00;100192.53;4209014;28;25677;-43
2022/06/29 07:28:41;;;;;;;23.43;16.87;;;;;;;20.57;100.00;100195.22;4212546;28;22952;-40
2022/06/29 07:31:08;;;;;;;22.93;16.33;;;;;;;20.49;100.00;100190.06;4209152;28;20251;-52
2022/06/29 07:33:35;;;;;;;25.10;17.17;;;;;;;20.45;100.00;100192.34;4199218;28;20241;-42
2022/06/29 07:36:01;;;;;;;24.53;16.63;;;;;;;20.64;100.00;100186.03;4221842;28;25801;-41
2022/06/29 07:38:28;;;;;;;21.13;15.13;;;;;;;20.78;100.00;100185.94;4218138;28;20237;-40
2022/06/29 07:40:54;;;;;;;25.20;15.43;;;;;;;20.89;100.00;100192.56;4210563;28;20291;-40
2022/06/29 07:43:21;;;;;;;21.37;15.00;;;;;;;20.93;100.00;100189.19;4190192;28;21894;-41
2022/06/29 07:45:48;;;;;;;22.40;14.60;;;;;;;20.92;100.00;100189.41;4198194;28;21797;-45
2022/06/29 07:48:14;;;;;;;22.33;15.50;;;;;;;21.00;99.42;100192.69;4220467;28;21152;-47
2022/06/29 07:50:41;;;;;;;22.03;15.80;;;;;;;20.86;99.82;100196.50;4206250;28;20237;-41
2022/06/29 07:53:08;;;;;;;22.27;15.47;;;;;;;20.76;100.00;100190.75;4223900;28;20367;-37
2022/06/29 07:55:34;;;;;;;21.53;15.37;;;;;;;20.88;100.00;100189.00;4235410;28;20232;-37
2022/06/29 07:58:01;;;;;;;21.73;15.40;;;;;;;21.13;99.85;100182.78;4203059;28;20388;-37
2022/06/29 08:00:28;;;;;;;21.83;15.83;;;;;;;21.33;98.87;100179.91;4217585;28;21850;-39
2022/06/29 08:02:55;;;;;;;23.20;15.00;;;;;;;21.48;97.63;100186.66;4207634;28;20706;-37
2022/06/29 08:05:23;;;;;;;22.47;15.10;;;;;;;21.50;96.75;100194.56;4204290;28;22784;-40
2022/06/29 08:07:50;;;;;;;18.40;14.77;;;;;;;21.16;98.54;100183.16;4219495;28;20228;-37
2022/06/29 08:10:17;;;;;;;23.03;15.63;;;;;;;21.10;99.90;100178.66;4225385;28;20325;-39
2022/06/29 08:12:44;;;;;;;21.40;15.23;;;;;;;21.20;99.34;100183.56;4213340;28;21654;-37
2022/06/29 08:15:11;;;;;;;23.63;14.87;;;;;;;21.31;97.54;100185.56;4216706;28;20603;-37
2022/06/29 08:17:38;;;;;;;21.43;15.33;;;;;;;21.52;96.00;100176.22;4219071;28;20233;-41
2022/06/29 08:20:06;;;;;;;21.67;15.50;;;;;;;21.52;96.41;100178.09;4208777;28;22842;-38
2022/06/29 08:22:32;;;;;;;22.50;16.00;;;;;;;21.33;96.10;100178.03;4193608;28;20859;-38
2022/06/29 08:24:59;;;;;;;24.37;15.97;;;;;;;21.35;96.99;100177.81;4210976;28;20305;-39
2022/06/29 08:27:26;;;;;;;22.80;15.70;;;;;;;21.36;94.93;100183.00;4205125;28;21829;-42
2022/06/29 08:30:13;;;;;;;25.13;17.00;;;;;;;21.44;95.41;100180.03;4196157;28;20372;-43
2022/06/29 08:32:41;;;;;;;25.33;17.87;;;;;;;21.49;95.97;100171.25;4226492;28;20326;-63
2022/06/29 08:35:10;;;;;;;28.40;18.17;;;;;;;21.49;94.49;100171.25;4219290;28;20286;-67
2022/06/29 08:37:37;;;;;;;26.57;18.53;;;;;;;21.35;95.62;100167.78;4198444;28;20233;-63
2022/06/29 08:40:07;;;;;;;27.80;18.10;;;;;;;21.38;95.54;100164.66;4199530;28;20369;-64
2022/06/29 08:42:35;;;;;;;28.63;16.47;;;;;;;21.42;95.86;100160.50;4212426;28;21596;-67
2022/06/29 08:45:03;;;;;;;21.93;16.47;;;;;;;21.49;94.81;100160.41;4221451;28;20244;-62
2022/06/29 08:47:30;;;;;;;23.73;15.47;;;;;;;21.75;93.19;100161.19;4213028;28;20962;-64
2022/06/29 08:49:56;;;;;;;24.17;16.63;;;;;;;21.72;93.14;100159.75;4206971;28;20232;-66
2022/06/29 08:52:26;;;;;;;21.60;16.00;;;;;;;21.72;91.80;100154.34;4205560;28;20240;-64
2022/06/29 08:54:53;;;;;;;20.97;15.50;;;;;;;21.71;91.30;100153.53;4207848;28;22833;-62
2022/06/29 08:57:23;;;;;;;21.93;15.30;;;;;;;21.86;91.57;100155.03;4210121;28;22715;-62
2022/06/29 08:59:52;;;;;;;20.27;14.20;;;;;;;22.14;90.87;100159.91;4205417;28;20240;-66
2022/06/29 09:02:28;;;;;;;21.23;14.10;;;;;;;22.39;89.96;100169.84;4199102;28;20234;-66
2022/06/29 09:04:55;;;;;;;20.73;14.70;;;;;;;22.22;87.92;100170.47;4215424;28;20838;-63
2022/06/29 09:07:23;;;;;;;23.47;15.10;;;;;;;21.98;90.14;100165.94;4203644;28;23078;-63
2022/06/29 09:10:11;;;;;;;22.87;15.97;;;;;;;22.12;88.57;100170.13;4201078;28;20228;-63
2022/06/29 09:12:39;;;;;;;23.93;14.67;;;;;;;22.25;89.23;100169.19;4190877;28;21245;-66
2022/06/29 09:15:07;;;;;;;24.73;14.53;;;;;;;22.41;87.76;100168.56;4214928;28;20232;-62
2022/06/29 09:17:35;;;;;;;18.67;14.23;;;;;;;22.54;86.67;100173.78;4210130;28;20320;-65
2022/06/29 09:20:03;;;;;;;23.73;14.93;;;;;;;22.54;86.29;100183.78;4208046;28;20608;-64
2022/06/29 09:22:52;;;;;;;29.43;16.37;;;;;;;22.32;86.96;100176.16;4213479;28;25498;-67
2022/06/29 09:25:30;;;;;;;19.43;14.07;;;;;;;22.47;86.38;100180.34;4208914;28;20273;-61
2022/06/29 09:27:57;;;;;;;20.83;14.63;;;;;;;22.49;86.80;100186.38;4192221;28;20271;-62
2022/06/29 09:30:27;;;;;;;22.60;14.23;;;;;;;22.62;86.29;100185.38;4201115;28;25623;-63
2022/06/29 09:33:04;;;;;;;19.80;14.20;;;;;;;22.35;88.71;100180.31;4221818;28;21618;-62
2022/06/29 09:35:35;;;;;;;19.77;13.43;;;;;;;22.53;88.11;100182.16;4193734;28;20299;-63
2022/06/29 09:38:22;;;;;;;23.00;12.60;;;;;;;22.65;87.51;100179.50;4201618;28;20315;-66
2022/06/29 09:41:08;;;;;;;23.93;14.83;;;;;;;22.51;85.90;100181.56;4206825;28;21761;-63
2022/06/29 09:43:39;;;;;;;19.57;14.17;;;;;;;22.52;87.01;100186.75;4220408;28;20238;-72
2022/06/29 09:46:07;;;;;;;20.77;13.77;;;;;;;22.51;87.97;100189.69;4211153;28;20296;-66
2022/06/29 09:48:36;;;;;;;19.77;14.37;;;;;;;22.68;86.50;100187.16;4200605;28;20265;-67
2022/06/29 09:53:54;;;;;;;24.33;14.70;;;;;;;22.54;85.70;100184.63;4224373;28;20233;-66
2022/06/29 09:56:21;;;;;;;18.87;14.10;;;;;;;22.64;85.60;100189.50;4218758;28;20283;-65
2022/06/29 09:58:49;;;;;;;18.40;13.93;;;;;;;22.67;86.40;100182.78;4188319;28;21417;-63
2022/06/29 10:04:10;;;;;;;19.67;12.60;;;;;;;23.18;82.62;100189.56;4203891;28;21697;-62
2022/06/29 10:06:37;;;;;;;19.17;13.60;;;;;;;23.35;80.50;100184.25;4165430;28;22868;-63
2022/06/29 10:09:04;;;;;;;18.33;12.80;;;;;;;23.66;78.88;100195.81;4188552;28;20251;-64
2022/06/29 10:14:44;;;;;;;17.33;12.30;;;;;;;23.13;79.68;100194.84;4190451;28;20235;-67
2022/06/29 10:17:49;;;;;;;27.67;15.50;;;;;;;23.30;80.34;100192.28;4214893;28;22087;-43
2022/06/29 10:20:29;;;;;;;23.97;13.47;;;;;;;23.51;79.88;100199.84;4191770;28;20354;-70
2022/06/29 10:22:56;;;;;;;19.03;13.20;;;;;;;23.33;80.58;100202.66;4203979;28;21353;-50
2022/06/29 10:25:29;;;;;;;22.73;14.43;;;;;;;23.32;78.90;100190.13;4197884;28;21574;-41
2022/06/29 10:28:18;;;;;;;16.20;12.33;;;;;;;23.38;79.85;100198.19;4206512;28;20230;-42
2022/06/29 10:30:45;;;;;;;18.97;12.63;;;;;;;23.33;78.91;100194.53;4194358;28;20237;-39
2022/06/29 10:33:35;;;;;;;19.77;13.67;;;;;;;22.93;80.07;100187.81;4216779;28;20242;-40
2022/06/29 10:36:08;;;;;;;22.20;13.63;;;;;;;22.77;81.64;100183.88;4191687;28;20285;-39
2022/06/29 10:38:58;;;;;;;26.00;13.60;;;;;;;22.98;81.94;100184.41;4189311;28;20241;-40
2022/06/29 10:44:11;;;;;;;19.63;12.60;;;;;;;23.30;79.78;100181.44;4212898;28;20558;-38
2022/06/29 10:46:56;;;;;;;15.80;12.93;;;;;;;23.47;80.20;100181.53;4235800;28;20246;-43
2022/06/29 10:49:23;;;;;;;15.57;12.47;;;;;;;23.50;80.30;100170.19;4219629;28;20967;-43
2022/06/29 10:51:50;;;;;;;15.47;12.27;;;;;;;23.77;78.72;100173.28;4211903;28;20236;-39
2022/06/29 10:54:27;;;;;;;16.73;13.13;;;;;;;23.78;77.65;100177.66;4210760;28;20239;-40
2022/06/29 10:56:55;;;;;;;16.33;12.13;;;;;;;23.56;78.29;100175.50;4192115;28;20258;-46
2022/06/29 10:59:33;;;;;;;17.60;12.90;;;;;;;23.63;77.84;100175.41;4215704;28;20248;-46
2022/06/29 11:02:10;;;;;;;23.37;14.33;;;;;;;23.84;77.19;100165.00;4237092;28;20248;-45
2022/06/29 11:04:40;;;;;;;21.50;13.27;;;;;;;24.10;75.59;100161.75;4208140;28;21758;-48
2022/06/29 11:12:50;;;;;;;19.93;13.30;;;;;;;24.35;72.62;100175.03;4238264;28;21498;-47
2022/06/29 11:15:39;;;;;;;14.77;11.23;;;;;;;24.70;70.76;100174.06;4207274;28;21113;-44
2022/06/29 11:18:11;;;;;;;15.73;11.60;;;;;;;25.03;69.26;100172.47;4231900;28;21317;-53
2022/06/29 11:20:39;;;;;;;16.60;12.93;;;;;;;25.09;71.11;100171.47;4255923;28;20266;-45
2022/06/29 11:23:11;;;;;;;17.27;12.60;;;;;;;25.30;68.31;100171.81;4203486;28;20318;-47
2022/06/29 11:25:40;;;;;;;18.20;12.13;;;;;;;25.08;68.20;100169.81;4204610;28;22718;-48
2022/06/29 11:28:07;;;;;;;15.37;11.80;;;;;;;24.84;69.46;100161.81;4205209;28;20241;-48
2022/06/29 11:30:33;;;;;;;12.10;10.57;;;;;;;25.37;67.74;100150.69;4208211;28;20306;-50
2022/06/29 11:33:06;;;;;;;18.20;11.40;;;;;;;25.83;66.43;100160.31;4213737;28;20245;-46